sensor_id;sensor_type;location;lat;lon;timestamp;P1;durP1;ratioP1;P2;durP2;ratioP2
45962;SDS011;31669;49.892;20.818;2022-09-09T00:00:11;4.03;;;2.53;;
45962;SDS011;31669;49.892;20.818;2022-09-09T00:05:43;5.80;;;2.45;;
45962;SDS011;31669;49.892;20.818;2022-09-09T00:10:46;3.58;;;2.35;;
45962;SDS011;31669;49.892;20.818;2022-09-09T00:15:54;3.88;;;2.65;;
45962;SDS011;31669;49.892;20.818;2022-09-09T00:21:01;5.13;;;2.65;;
45962;SDS011;31669;49.892;20.818;2022-09-09T00:26:10;3.88;;;2.42;;
45962;SDS011;31669;49.892;20.818;2022-09-09T00:31:17;3.90;;;2.72;;
45962;SDS011;31669;49.892;20.818;2022-09-09T00:36:20;3.30;;;2.25;;
45962;SDS011;31669;49.892;20.818;2022-09-09T00:46:56;1.88;;;1.73;;
45962;SDS011;31669;49.892;20.818;2022-09-09T00:52:08;3.50;;;2.10;;
45962;SDS011;31669;49.892;20.818;2022-09-09T01:02:39;3.75;;;1.95;;
45962;SDS011;31669;49.892;20.818;2022-09-09T01:07:44;4.35;;;2.25;;
45962;SDS011;31669;49.892;20.818;2022-09-09T01:12:47;6.80;;;2.05;;
45962;SDS011;31669;49.892;20.818;2022-09-09T01:22:59;3.50;;;2.23;;
45962;SDS011;31669;49.892;20.818;2022-09-09T01:28:03;2.92;;;1.92;;
45962;SDS011;31669;49.892;20.818;2022-09-09T01:33:07;4.40;;;2.65;;
45962;SDS011;31669;49.892;20.818;2022-09-09T01:38:12;4.22;;;3.47;;
45962;SDS011;31669;49.892;20.818;2022-09-09T01:43:13;4.15;;;2.50;;
45962;SDS011;31669;49.892;20.818;2022-09-09T01:48:13;1.92;;;1.63;;
45962;SDS011;31669;49.892;20.818;2022-09-09T01:53:15;4.25;;;2.95;;
45962;SDS011;31669;49.892;20.818;2022-09-09T01:58:35;2.67;;;1.90;;
45962;SDS011;31669;49.892;20.818;2022-09-09T02:08:41;3.03;;;2.03;;
45962;SDS011;31669;49.892;20.818;2022-09-09T02:13:44;2.58;;;1.75;;
45962;SDS011;31669;49.892;20.818;2022-09-09T02:18:53;3.13;;;2.40;;
45962;SDS011;31669;49.892;20.818;2022-09-09T02:23:56;5.75;;;2.22;;
45962;SDS011;31669;49.892;20.818;2022-09-09T02:28:58;3.22;;;2.22;;
45962;SDS011;31669;49.892;20.818;2022-09-09T02:34:00;2.80;;;1.73;;
45962;SDS011;31669;49.892;20.818;2022-09-09T02:39:02;3.38;;;1.88;;
45962;SDS011;31669;49.892;20.818;2022-09-09T02:44:10;4.30;;;2.35;;
45962;SDS011;31669;49.892;20.818;2022-09-09T02:49:15;2.35;;;1.98;;
45962;SDS011;31669;49.892;20.818;2022-09-09T02:54:21;3.72;;;2.10;;
45962;SDS011;31669;49.892;20.818;2022-09-09T02:59:27;1.88;;;1.25;;
45962;SDS011;31669;49.892;20.818;2022-09-09T03:04:28;2.08;;;1.88;;
45962;SDS011;31669;49.892;20.818;2022-09-09T03:14:29;3.08;;;2.00;;
45962;SDS011;31669;49.892;20.818;2022-09-09T03:19:30;3.97;;;2.15;;
45962;SDS011;31669;49.892;20.818;2022-09-09T03:24:31;1.52;;;1.30;;
45962;SDS011;31669;49.892;20.818;2022-09-09T03:29:32;7.73;;;1.87;;
45962;SDS011;31669;49.892;20.818;2022-09-09T03:34:33;3.13;;;2.00;;
45962;SDS011;31669;49.892;20.818;2022-09-09T03:39:33;2.80;;;1.90;;
45962;SDS011;31669;49.892;20.818;2022-09-09T03:44:34;3.23;;;2.57;;
45962;SDS011;31669;49.892;20.818;2022-09-09T03:49:34;2.97;;;2.47;;
45962;SDS011;31669;49.892;20.818;2022-09-09T03:54:35;3.83;;;2.33;;
45962;SDS011;31669;49.892;20.818;2022-09-09T03:59:36;4.43;;;2.38;;
45962;SDS011;31669;49.892;20.818;2022-09-09T04:04:36;5.88;;;2.80;;
45962;SDS011;31669;49.892;20.818;2022-09-09T04:09:37;4.67;;;2.40;;
45962;SDS011;31669;49.892;20.818;2022-09-09T04:14:37;3.80;;;2.67;;
45962;SDS011;31669;49.892;20.818;2022-09-09T04:19:38;3.23;;;2.33;;
45962;SDS011;31669;49.892;20.818;2022-09-09T04:24:38;6.00;;;2.42;;
45962;SDS011;31669;49.892;20.818;2022-09-09T04:29:39;1.67;;;1.57;;
45962;SDS011;31669;49.892;20.818;2022-09-09T04:34:39;4.72;;;2.40;;
45962;SDS011;31669;49.892;20.818;2022-09-09T04:39:41;2.83;;;1.80;;
45962;SDS011;31669;49.892;20.818;2022-09-09T04:44:41;2.40;;;2.00;;
45962;SDS011;31669;49.892;20.818;2022-09-09T04:49:42;4.20;;;1.37;;
45962;SDS011;31669;49.892;20.818;2022-09-09T04:54:42;2.03;;;1.47;;
45962;SDS011;31669;49.892;20.818;2022-09-09T04:59:43;3.33;;;1.73;;
45962;SDS011;31669;49.892;20.818;2022-09-09T05:09:45;3.60;;;2.30;;
45962;SDS011;31669;49.892;20.818;2022-09-09T05:14:45;3.97;;;2.38;;
45962;SDS011;31669;49.892;20.818;2022-09-09T05:19:46;6.77;;;1.90;;
45962;SDS011;31669;49.892;20.818;2022-09-09T05:24:47;2.20;;;1.47;;
45962;SDS011;31669;49.892;20.818;2022-09-09T05:29:47;3.20;;;1.65;;
45962;SDS011;31669;49.892;20.818;2022-09-09T05:34:48;3.67;;;2.23;;
45962;SDS011;31669;49.892;20.818;2022-09-09T05:39:48;1.37;;;1.27;;
45962;SDS011;31669;49.892;20.818;2022-09-09T05:44:49;4.63;;;2.40;;
45962;SDS011;31669;49.892;20.818;2022-09-09T05:49:51;1.95;;;1.58;;
45962;SDS011;31669;49.892;20.818;2022-09-09T05:54:52;4.93;;;2.00;;
45962;SDS011;31669;49.892;20.818;2022-09-09T05:59:52;3.58;;;1.80;;
45962;SDS011;31669;49.892;20.818;2022-09-09T06:09:56;1.70;;;1.38;;
45962;SDS011;31669;49.892;20.818;2022-09-09T06:14:56;2.77;;;1.17;;
45962;SDS011;31669;49.892;20.818;2022-09-09T06:19:57;0.47;;;0.23;;
45962;SDS011;31669;49.892;20.818;2022-09-09T06:24:58;2.35;;;1.48;;
45962;SDS011;31669;49.892;20.818;2022-09-09T06:29:58;2.30;;;1.50;;
45962;SDS011;31669;49.892;20.818;2022-09-09T06:34:58;2.20;;;1.20;;
45962;SDS011;31669;49.892;20.818;2022-09-09T06:40:01;4.82;;;0.73;;
45962;SDS011;31669;49.892;20.818;2022-09-09T06:45:02;4.28;;;1.92;;
45962;SDS011;31669;49.892;20.818;2022-09-09T06:50:03;4.17;;;2.43;;
45962;SDS011;31669;49.892;20.818;2022-09-09T06:55:03;2.78;;;1.40;;
45962;SDS011;31669;49.892;20.818;2022-09-09T07:00:04;3.70;;;1.83;;
45962;SDS011;31669;49.892;20.818;2022-09-09T07:05:08;2.75;;;1.88;;
45962;SDS011;31669;49.892;20.818;2022-09-09T07:10:08;1.02;;;0.90;;
45962;SDS011;31669;49.892;20.818;2022-09-09T07:15:09;2.33;;;1.30;;
45962;SDS011;31669;49.892;20.818;2022-09-09T07:20:10;2.27;;;2.07;;
45962;SDS011;31669;49.892;20.818;2022-09-09T07:25:11;2.38;;;2.08;;
45962;SDS011;31669;49.892;20.818;2022-09-09T07:30:11;3.58;;;1.85;;
45962;SDS011;31669;49.892;20.818;2022-09-09T07:35:12;2.90;;;1.80;;
45962;SDS011;31669;49.892;20.818;2022-09-09T07:40:12;2.87;;;1.83;;
45962;SDS011;31669;49.892;20.818;2022-09-09T07:45:13;4.07;;;2.10;;
45962;SDS011;31669;49.892;20.818;2022-09-09T07:50:14;2.17;;;1.83;;
45962;SDS011;31669;49.892;20.818;2022-09-09T07:55:15;5.30;;;2.45;;
45962;SDS011;31669;49.892;20.818;2022-09-09T08:00:15;1.93;;;1.67;;
45962;SDS011;31669;49.892;20.818;2022-09-09T08:05:16;4.77;;;2.80;;
45962;SDS011;31669;49.892;20.818;2022-09-09T08:10:17;4.43;;;2.55;;
45962;SDS011;31669;49.892;20.818;2022-09-09T08:15:18;5.90;;;3.78;;
45962;SDS011;31669;49.892;20.818;2022-09-09T08:20:18;3.20;;;2.40;;
45962;SDS011;31669;49.892;20.818;2022-09-09T08:25:19;3.45;;;2.78;;
45962;SDS011;31669;49.892;20.818;2022-09-09T08:30:19;6.47;;;3.00;;
45962;SDS011;31669;49.892;20.818;2022-09-09T08:35:20;6.07;;;2.93;;
45962;SDS011;31669;49.892;20.818;2022-09-09T08:40:22;1.60;;;1.50;;
45962;SDS011;31669;49.892;20.818;2022-09-09T08:45:37;2.00;;;1.73;;
45962;SDS011;31669;49.892;20.818;2022-09-09T08:50:44;3.35;;;2.40;;
45962;SDS011;31669;49.892;20.818;2022-09-09T09:05:54;3.20;;;2.03;;
45962;SDS011;31669;49.892;20.818;2022-09-09T09:10:58;4.13;;;2.55;;
45962;SDS011;31669;49.892;20.818;2022-09-09T09:16:06;3.88;;;2.53;;
45962;SDS011;31669;49.892;20.818;2022-09-09T09:21:12;3.45;;;2.30;;
45962;SDS011;31669;49.892;20.818;2022-09-09T09:26:15;3.78;;;2.22;;
45962;SDS011;31669;49.892;20.818;2022-09-09T09:31:15;3.33;;;1.93;;
45962;SDS011;31669;49.892;20.818;2022-09-09T09:36:16;3.42;;;1.98;;
45962;SDS011;31669;49.892;20.818;2022-09-09T09:41:17;1.30;;;1.20;;
45962;SDS011;31669;49.892;20.818;2022-09-09T09:46:29;2.45;;;1.80;;
45962;SDS011;31669;49.892;20.818;2022-09-09T09:51:30;3.20;;;1.20;;
45962;SDS011;31669;49.892;20.818;2022-09-09T09:56:32;1.80;;;1.45;;
45962;SDS011;31669;49.892;20.818;2022-09-09T10:01:33;1.87;;;1.57;;
45962;SDS011;31669;49.892;20.818;2022-09-09T10:06:35;1.83;;;1.52;;
45962;SDS011;31669;49.892;20.818;2022-09-09T10:11:44;1.88;;;1.25;;
45962;SDS011;31669;49.892;20.818;2022-09-09T10:16:53;2.35;;;2.15;;
45962;SDS011;31669;49.892;20.818;2022-09-09T10:42:58;1.65;;;1.52;;
45962;SDS011;31669;49.892;20.818;2022-09-09T10:48:11;2.58;;;1.52;;
45962;SDS011;31669;49.892;20.818;2022-09-09T10:53:17;2.72;;;1.52;;
45962;SDS011;31669;49.892;20.818;2022-09-09T10:58:23;4.45;;;1.30;;
45962;SDS011;31669;49.892;20.818;2022-09-09T11:03:26;2.00;;;1.27;;
45962;SDS011;31669;49.892;20.818;2022-09-09T11:08:30;3.08;;;1.13;;
45962;SDS011;31669;49.892;20.818;2022-09-09T11:13:35;0.70;;;0.70;;
45962;SDS011;31669;49.892;20.818;2022-09-09T11:18:40;2.03;;;1.15;;
45962;SDS011;31669;49.892;20.818;2022-09-09T11:23:46;1.20;;;0.77;;
45962;SDS011;31669;49.892;20.818;2022-09-09T11:44:10;2.45;;;1.38;;
45962;SDS011;31669;49.892;20.818;2022-09-09T11:49:28;1.98;;;1.65;;
45962;SDS011;31669;49.892;20.818;2022-09-09T11:59:30;0.85;;;0.85;;
45962;SDS011;31669;49.892;20.818;2022-09-09T12:04:35;2.58;;;1.17;;
45962;SDS011;31669;49.892;20.818;2022-09-09T12:09:43;5.07;;;1.52;;
45962;SDS011;31669;49.892;20.818;2022-09-09T12:20:03;2.13;;;1.50;;
45962;SDS011;31669;49.892;20.818;2022-09-09T12:30:14;3.40;;;2.55;;
45962;SDS011;31669;49.892;20.818;2022-09-09T12:35:19;2.80;;;1.63;;
45962;SDS011;31669;49.892;20.818;2022-09-09T12:45:21;1.23;;;1.13;;
45962;SDS011;31669;49.892;20.818;2022-09-09T12:50:24;1.75;;;1.13;;
45962;SDS011;31669;49.892;20.818;2022-09-09T12:55:30;2.58;;;1.67;;
45962;SDS011;31669;49.892;20.818;2022-09-09T13:00:34;1.23;;;1.08;;
45962;SDS011;31669;49.892;20.818;2022-09-09T13:05:35;1.65;;;1.55;;
45962;SDS011;31669;49.892;20.818;2022-09-09T13:15:59;1.90;;;1.50;;
45962;SDS011;31669;49.892;20.818;2022-09-09T13:21:00;1.63;;;1.05;;
45962;SDS011;31669;49.892;20.818;2022-09-09T13:26:02;2.47;;;1.70;;
45962;SDS011;31669;49.892;20.818;2022-09-09T13:31:05;2.20;;;1.40;;
45962;SDS011;31669;49.892;20.818;2022-09-09T13:36:08;2.13;;;1.63;;
45962;SDS011;31669;49.892;20.818;2022-09-09T13:41:09;0.95;;;0.85;;
45962;SDS011;31669;49.892;20.818;2022-09-09T13:51:21;2.75;;;1.45;;
45962;SDS011;31669;49.892;20.818;2022-09-09T13:56:26;1.88;;;1.13;;
45962;SDS011;31669;49.892;20.818;2022-09-09T14:01:27;1.33;;;1.13;;
45962;SDS011;31669;49.892;20.818;2022-09-09T14:06:27;1.05;;;0.95;;
45962;SDS011;31669;49.892;20.818;2022-09-09T14:11:29;1.70;;;1.42;;
45962;SDS011;31669;49.892;20.818;2022-09-09T14:16:29;1.53;;;1.40;;
45962;SDS011;31669;49.892;20.818;2022-09-09T14:21:30;1.80;;;1.15;;
45962;SDS011;31669;49.892;20.818;2022-09-09T14:26:30;2.10;;;0.97;;
45962;SDS011;31669;49.892;20.818;2022-09-09T14:31:31;2.05;;;1.40;;
45962;SDS011;31669;49.892;20.818;2022-09-09T14:36:33;2.00;;;1.33;;
45962;SDS011;31669;49.892;20.818;2022-09-09T14:41:33;2.92;;;1.77;;
45962;SDS011;31669;49.892;20.818;2022-09-09T14:46:34;1.83;;;1.40;;
45962;SDS011;31669;49.892;20.818;2022-09-09T14:51:34;1.85;;;0.80;;
45962;SDS011;31669;49.892;20.818;2022-09-09T14:56:35;1.30;;;1.20;;
45962;SDS011;31669;49.892;20.818;2022-09-09T15:01:35;1.60;;;0.93;;
45962;SDS011;31669;49.892;20.818;2022-09-09T15:06:36;1.13;;;0.80;;
45962;SDS011;31669;49.892;20.818;2022-09-09T15:11:37;0.95;;;0.80;;
45962;SDS011;31669;49.892;20.818;2022-09-09T15:16:38;1.45;;;0.90;;
45962;SDS011;31669;49.892;20.818;2022-09-09T15:21:40;2.70;;;0.73;;
45962;SDS011;31669;49.892;20.818;2022-09-09T15:26:40;2.47;;;1.00;;
45962;SDS011;31669;49.892;20.818;2022-09-09T15:31:41;1.83;;;0.80;;
45962;SDS011;31669;49.892;20.818;2022-09-09T15:36:44;1.58;;;1.35;;
45962;SDS011;31669;49.892;20.818;2022-09-09T15:41:48;1.58;;;0.93;;
45962;SDS011;31669;49.892;20.818;2022-09-09T15:46:50;0.88;;;0.85;;
45962;SDS011;31669;49.892;20.818;2022-09-09T15:51:55;3.90;;;1.80;;
45962;SDS011;31669;49.892;20.818;2022-09-09T15:56:58;2.15;;;1.52;;
45962;SDS011;31669;49.892;20.818;2022-09-09T16:01:59;5.43;;;2.20;;
45962;SDS011;31669;49.892;20.818;2022-09-09T16:07:04;3.53;;;1.60;;
45962;SDS011;31669;49.892;20.818;2022-09-09T16:12:05;5.43;;;1.63;;
45962;SDS011;31669;49.892;20.818;2022-09-09T16:17:12;3.47;;;2.03;;
45962;SDS011;31669;49.892;20.818;2022-09-09T16:22:12;6.22;;;2.67;;
45962;SDS011;31669;49.892;20.818;2022-09-09T16:27:15;23.98;;;6.18;;
45962;SDS011;31669;49.892;20.818;2022-09-09T16:32:15;10.77;;;4.50;;
45962;SDS011;31669;49.892;20.818;2022-09-09T16:37:16;6.32;;;2.55;;
45962;SDS011;31669;49.892;20.818;2022-09-09T16:47:18;5.57;;;2.10;;
45962;SDS011;31669;49.892;20.818;2022-09-09T16:52:19;10.02;;;2.20;;
45962;SDS011;31669;49.892;20.818;2022-09-09T16:57:20;11.17;;;3.10;;
45962;SDS011;31669;49.892;20.818;2022-09-09T17:02:20;6.97;;;2.10;;
45962;SDS011;31669;49.892;20.818;2022-09-09T17:07:21;4.27;;;2.07;;
45962;SDS011;31669;49.892;20.818;2022-09-09T17:12:23;2.50;;;1.52;;
45962;SDS011;31669;49.892;20.818;2022-09-09T17:17:23;4.00;;;1.83;;
45962;SDS011;31669;49.892;20.818;2022-09-09T17:22:23;4.67;;;2.33;;
45962;SDS011;31669;49.892;20.818;2022-09-09T17:27:26;9.20;;;3.33;;
45962;SDS011;31669;49.892;20.818;2022-09-09T17:32:27;8.63;;;3.70;;
45962;SDS011;31669;49.892;20.818;2022-09-09T17:37:29;10.45;;;4.25;;
45962;SDS011;31669;49.892;20.818;2022-09-09T17:42:29;7.00;;;3.10;;
45962;SDS011;31669;49.892;20.818;2022-09-09T17:47:30;4.63;;;3.30;;
45962;SDS011;31669;49.892;20.818;2022-09-09T17:52:32;7.57;;;3.42;;
45962;SDS011;31669;49.892;20.818;2022-09-09T17:57:32;5.40;;;3.53;;
45962;SDS011;31669;49.892;20.818;2022-09-09T18:02:33;9.30;;;4.30;;
45962;SDS011;31669;49.892;20.818;2022-09-09T18:07:34;12.60;;;4.27;;
45962;SDS011;31669;49.892;20.818;2022-09-09T18:12:34;10.05;;;4.55;;
45962;SDS011;31669;49.892;20.818;2022-09-09T18:17:35;8.87;;;4.87;;
45962;SDS011;31669;49.892;20.818;2022-09-09T18:22:35;14.33;;;5.00;;
45962;SDS011;31669;49.892;20.818;2022-09-09T18:27:36;14.33;;;5.40;;
45962;SDS011;31669;49.892;20.818;2022-09-09T18:32:36;9.80;;;5.03;;
45962;SDS011;31669;49.892;20.818;2022-09-09T18:37:37;18.33;;;5.85;;
45962;SDS011;31669;49.892;20.818;2022-09-09T18:42:39;16.42;;;5.78;;
45962;SDS011;31669;49.892;20.818;2022-09-09T18:47:39;11.43;;;5.20;;
45962;SDS011;31669;49.892;20.818;2022-09-09T18:52:41;8.63;;;4.22;;
45962;SDS011;31669;49.892;20.818;2022-09-09T18:57:42;15.18;;;5.85;;
45962;SDS011;31669;49.892;20.818;2022-09-09T19:02:47;14.27;;;5.33;;
45962;SDS011;31669;49.892;20.818;2022-09-09T19:07:51;11.90;;;3.90;;
45962;SDS011;31669;49.892;20.818;2022-09-09T19:12:52;7.15;;;3.33;;
45962;SDS011;31669;49.892;20.818;2022-09-09T19:17:52;6.23;;;3.00;;
45962;SDS011;31669;49.892;20.818;2022-09-09T19:22:55;7.93;;;3.78;;
45962;SDS011;31669;49.892;20.818;2022-09-09T19:27:56;13.95;;;3.13;;
45962;SDS011;31669;49.892;20.818;2022-09-09T19:32:57;19.77;;;5.68;;
45962;SDS011;31669;49.892;20.818;2022-09-09T19:37:58;12.32;;;5.38;;
45962;SDS011;31669;49.892;20.818;2022-09-09T19:43:00;11.18;;;5.18;;
45962;SDS011;31669;49.892;20.818;2022-09-09T19:48:01;16.15;;;5.20;;
45962;SDS011;31669;49.892;20.818;2022-09-09T19:53:02;8.55;;;4.55;;
45962;SDS011;31669;49.892;20.818;2022-09-09T19:58:03;8.07;;;3.78;;
45962;SDS011;31669;49.892;20.818;2022-09-09T20:03:03;12.17;;;4.40;;
45962;SDS011;31669;49.892;20.818;2022-09-09T20:08:04;11.07;;;4.30;;
45962;SDS011;31669;49.892;20.818;2022-09-09T20:13:05;10.23;;;3.73;;
45962;SDS011;31669;49.892;20.818;2022-09-09T20:18:05;7.40;;;4.20;;
45962;SDS011;31669;49.892;20.818;2022-09-09T20:23:06;12.83;;;4.43;;
45962;SDS011;31669;49.892;20.818;2022-09-09T20:28:08;9.65;;;4.60;;
45962;SDS011;31669;49.892;20.818;2022-09-09T20:33:08;5.03;;;2.73;;
45962;SDS011;31669;49.892;20.818;2022-09-09T20:43:10;6.57;;;3.05;;
45962;SDS011;31669;49.892;20.818;2022-09-09T20:48:14;10.88;;;3.88;;
45962;SDS011;31669;49.892;20.818;2022-09-09T20:53:14;4.93;;;2.67;;
45962;SDS011;31669;49.892;20.818;2022-09-09T20:58:15;6.97;;;2.90;;
45962;SDS011;31669;49.892;20.818;2022-09-09T21:03:16;7.00;;;3.87;;
45962;SDS011;31669;49.892;20.818;2022-09-09T21:08:16;8.38;;;3.65;;
45962;SDS011;31669;49.892;20.818;2022-09-09T21:13:17;9.47;;;3.77;;
45962;SDS011;31669;49.892;20.818;2022-09-09T21:18:18;9.10;;;3.50;;
45962;SDS011;31669;49.892;20.818;2022-09-09T21:23:19;5.85;;;2.95;;
45962;SDS011;31669;49.892;20.818;2022-09-09T21:28:20;5.93;;;3.58;;
45962;SDS011;31669;49.892;20.818;2022-09-09T21:33:21;4.68;;;3.00;;
45962;SDS011;31669;49.892;20.818;2022-09-09T21:38:23;8.00;;;3.88;;
45962;SDS011;31669;49.892;20.818;2022-09-09T21:48:24;7.30;;;3.35;;
45962;SDS011;31669;49.892;20.818;2022-09-09T21:58:25;7.25;;;3.92;;
45962;SDS011;31669;49.892;20.818;2022-09-09T22:03:26;7.70;;;3.67;;
45962;SDS011;31669;49.892;20.818;2022-09-09T22:08:26;7.40;;;4.17;;
45962;SDS011;31669;49.892;20.818;2022-09-09T22:13:28;11.68;;;4.20;;
45962;SDS011;31669;49.892;20.818;2022-09-09T22:18:29;7.93;;;3.90;;
45962;SDS011;31669;49.892;20.818;2022-09-09T22:23:31;9.07;;;4.68;;
45962;SDS011;31669;49.892;20.818;2022-09-09T22:28:32;4.90;;;3.00;;
45962;SDS011;31669;49.892;20.818;2022-09-09T22:38:34;6.45;;;4.03;;
45962;SDS011;31669;49.892;20.818;2022-09-09T22:48:36;6.83;;;3.93;;
45962;SDS011;31669;49.892;20.818;2022-09-09T22:53:38;8.70;;;4.22;;
45962;SDS011;31669;49.892;20.818;2022-09-09T22:58:38;10.63;;;4.35;;
45962;SDS011;31669;49.892;20.818;2022-09-09T23:03:39;9.03;;;5.10;;
45962;SDS011;31669;49.892;20.818;2022-09-09T23:08:41;7.57;;;4.43;;
45962;SDS011;31669;49.892;20.818;2022-09-09T23:13:46;7.03;;;3.10;;
45962;SDS011;31669;49.892;20.818;2022-09-09T23:18:46;9.45;;;5.10;;
45962;SDS011;31669;49.892;20.818;2022-09-09T23:23:50;7.28;;;3.60;;
45962;SDS011;31669;49.892;20.818;2022-09-09T23:28:51;5.40;;;3.47;;
45962;SDS011;31669;49.892;20.818;2022-09-09T23:33:52;10.32;;;4.63;;
45962;SDS011;31669;49.892;20.818;2022-09-09T23:43:55;10.77;;;5.50;;
45962;SDS011;31669;49.892;20.818;2022-09-09T23:48:56;8.45;;;4.07;;
45962;SDS011;31669;49.892;20.818;2022-09-09T23:53:58;9.68;;;4.03;;
45962;SDS011;31669;49.892;20.818;2022-09-09T23:58:59;9.20;;;4.63;;
